sensor_id;sensor_type;location;lat;lon;timestamp;P1;P2;P0
46591;PMS6003;32314;48.748;9.656;2023-02-28T00:01:50;4.50;1.00;1.00
46591;PMS6003;32314;48.748;9.656;2023-02-28T00:04:36;1.00;1.00;0.50
46591;PMS6003;32314;48.748;9.656;2023-02-28T00:07:22;0.00;0.00;0.00
46591;PMS6003;32314;48.748;9.656;2023-02-28T00:10:09;0.00;0.00;0.00
46591;PMS6003;32314;48.748;9.656;2023-02-28T00:12:59;3.25;3.25;1.75
46591;PMS6003;32314;48.748;9.656;2023-02-28T00:15:58;0.00;0.00;0.00
46591;PMS6003;32314;48.748;9.656;2023-02-28T00:18:47;1.00;1.00;1.00
46591;PMS6003;32314;48.748;9.656;2023-02-28T00:21:33;2.00;1.00;0.00
46591;PMS6003;32314;48.748;9.656;2023-02-28T00:24:19;0.25;0.25;0.25
46591;PMS6003;32314;48.748;9.656;2023-02-28T00:27:05;3.50;0.75;0.75
46591;PMS6003;32314;48.748;9.656;2023-02-28T00:29:51;0.25;0.25;0.25
46591;PMS6003;32314;48.748;9.656;2023-02-28T00:32:36;3.00;0.00;0.00
46591;PMS6003;32314;48.748;9.656;2023-02-28T00:35:22;0.25;0.25;0.00
46591;PMS6003;32314;48.748;9.656;2023-02-28T00:38:08;0.75;0.50;0.50
46591;PMS6003;32314;48.748;9.656;2023-02-28T00:40:54;10.50;9.25;7.25
46591;PMS6003;32314;48.748;9.656;2023-02-28T00:43:40;1.00;0.25;0.25
46591;PMS6003;32314;48.748;9.656;2023-02-28T00:46:26;2.50;2.50;1.00
46591;PMS6003;32314;48.748;9.656;2023-02-28T00:49:12;3.75;1.50;1.50
46591;PMS6003;32314;48.748;9.656;2023-02-28T00:51:58;0.50;0.50;0.25
46591;PMS6003;32314;48.748;9.656;2023-02-28T00:54:45;10.00;8.25;6.00
46591;PMS6003;32314;48.748;9.656;2023-02-28T00:57:32;0.00;0.00;0.00
46591;PMS6003;32314;48.748;9.656;2023-02-28T01:00:17;1.00;1.00;1.00
46591;PMS6003;32314;48.748;9.656;2023-02-28T01:03:03;6.75;4.00;1.00
46591;PMS6003;32314;48.748;9.656;2023-02-28T01:05:49;4.00;2.00;1.00
46591;PMS6003;32314;48.748;9.656;2023-02-28T01:08:36;1.00;1.00;1.00
46591;PMS6003;32314;48.748;9.656;2023-02-28T01:11:21;0.50;0.50;0.50
46591;PMS6003;32314;48.748;9.656;2023-02-28T01:14:07;0.25;0.25;0.25
46591;PMS6003;32314;48.748;9.656;2023-02-28T01:16:53;1.50;1.50;1.00
46591;PMS6003;32314;48.748;9.656;2023-02-28T01:19:39;1.00;1.00;1.00
46591;PMS6003;32314;48.748;9.656;2023-02-28T01:22:25;1.00;1.00;1.00
46591;PMS6003;32314;48.748;9.656;2023-02-28T01:25:11;0.00;0.00;0.00
46591;PMS6003;32314;48.748;9.656;2023-02-28T01:27:57;1.00;1.00;1.00
46591;PMS6003;32314;48.748;9.656;2023-02-28T01:30:42;9.50;9.50;8.00
46591;PMS6003;32314;48.748;9.656;2023-02-28T01:33:28;2.25;1.50;1.00
46591;PMS6003;32314;48.748;9.656;2023-02-28T01:36:18;1.00;0.00;0.00
46591;PMS6003;32314;48.748;9.656;2023-02-28T01:39:06;0.00;0.00;0.00
46591;PMS6003;32314;48.748;9.656;2023-02-28T01:41:52;1.00;1.00;1.00
46591;PMS6003;32314;48.748;9.656;2023-02-28T01:47:47;10.00;10.00;6.75
46591;PMS6003;32314;48.748;9.656;2023-02-28T01:50:35;1.00;1.00;0.50
46591;PMS6003;32314;48.748;9.656;2023-02-28T01:53:28;0.25;0.25;0.25
46591;PMS6003;32314;48.748;9.656;2023-02-28T01:56:17;0.00;0.00;0.00
46591;PMS6003;32314;48.748;9.656;2023-02-28T01:59:08;0.00;0.00;0.00
46591;PMS6003;32314;48.748;9.656;2023-02-28T02:01:54;3.75;1.00;1.00
46591;PMS6003;32314;48.748;9.656;2023-02-28T02:04:42;1.00;1.00;1.00
46591;PMS6003;32314;48.748;9.656;2023-02-28T02:07:38;0.75;0.75;0.75
46591;PMS6003;32314;48.748;9.656;2023-02-28T02:10:36;3.25;3.00;1.00
46591;PMS6003;32314;48.748;9.656;2023-02-28T02:25:49;1.50;1.50;1.50
46591;PMS6003;32314;48.748;9.656;2023-02-28T02:35:14;0.50;0.50;0.25
46591;PMS6003;32314;48.748;9.656;2023-02-28T02:38:07;0.50;0.25;0.00
46591;PMS6003;32314;48.748;9.656;2023-02-28T02:47:12;15.25;14.25;10.75
46591;PMS6003;32314;48.748;9.656;2023-02-28T02:50:01;0.00;0.00;0.00
46591;PMS6003;32314;48.748;9.656;2023-02-28T02:52:53;2.75;1.50;1.00
46591;PMS6003;32314;48.748;9.656;2023-02-28T02:55:43;3.00;0.25;0.25
46591;PMS6003;32314;48.748;9.656;2023-02-28T02:58:33;1.00;1.00;0.25
46591;PMS6003;32314;48.748;9.656;2023-02-28T03:01:27;4.00;1.00;0.75
46591;PMS6003;32314;48.748;9.656;2023-02-28T03:04:19;1.00;1.00;0.50
46591;PMS6003;32314;48.748;9.656;2023-02-28T03:07:07;16.00;13.75;9.50
46591;PMS6003;32314;48.748;9.656;2023-02-28T03:09:54;5.75;2.50;2.50
46591;PMS6003;32314;48.748;9.656;2023-02-28T03:12:41;1.50;1.50;1.00
46591;PMS6003;32314;48.748;9.656;2023-02-28T03:15:40;3.00;0.00;0.00
46591;PMS6003;32314;48.748;9.656;2023-02-28T03:21:31;2.00;2.00;1.00
46591;PMS6003;32314;48.748;9.656;2023-02-28T03:24:41;1.00;1.00;1.00
46591;PMS6003;32314;48.748;9.656;2023-02-28T03:33:51;0.00;0.00;0.00
46591;PMS6003;32314;48.748;9.656;2023-02-28T03:36:44;1.00;1.00;1.00
46591;PMS6003;32314;48.748;9.656;2023-02-28T03:39:40;0.00;0.00;0.00
46591;PMS6003;32314;48.748;9.656;2023-02-28T03:42:29;1.00;1.00;1.00
46591;PMS6003;32314;48.748;9.656;2023-02-28T03:45:18;4.00;3.00;2.50
46591;PMS6003;32314;48.748;9.656;2023-02-28T03:48:15;3.75;2.50;1.00
46591;PMS6003;32314;48.748;9.656;2023-02-28T03:51:02;2.50;2.50;1.00
46591;PMS6003;32314;48.748;9.656;2023-02-28T03:53:52;16.75;15.75;11.75
46591;PMS6003;32314;48.748;9.656;2023-02-28T03:56:45;3.00;3.00;3.00
46591;PMS6003;32314;48.748;9.656;2023-02-28T03:59:47;3.00;3.00;1.50
46591;PMS6003;32314;48.748;9.656;2023-02-28T04:02:39;2.00;2.00;1.00
46591;PMS6003;32314;48.748;9.656;2023-02-28T04:05:24;3.25;3.25;3.00
46591;PMS6003;32314;48.748;9.656;2023-02-28T04:08:11;1.00;1.00;1.00
46591;PMS6003;32314;48.748;9.656;2023-02-28T04:11:01;2.50;1.00;1.00
46591;PMS6003;32314;48.748;9.656;2023-02-28T04:13:51;4.50;2.50;1.00
46591;PMS6003;32314;48.748;9.656;2023-02-28T04:16:38;3.50;3.50;3.50
46591;PMS6003;32314;48.748;9.656;2023-02-28T04:19:25;1.00;1.00;1.00
46591;PMS6003;32314;48.748;9.656;2023-02-28T04:22:11;1.00;1.00;1.00
46591;PMS6003;32314;48.748;9.656;2023-02-28T04:24:57;1.00;1.00;1.00
46591;PMS6003;32314;48.748;9.656;2023-02-28T04:27:43;2.00;0.50;0.00
46591;PMS6003;32314;48.748;9.656;2023-02-28T04:30:29;2.25;1.00;0.50
46591;PMS6003;32314;48.748;9.656;2023-02-28T04:33:17;3.00;2.50;1.00
46591;PMS6003;32314;48.748;9.656;2023-02-28T04:36:05;2.00;2.00;1.00
46591;PMS6003;32314;48.748;9.656;2023-02-28T04:38:52;6.75;4.50;4.00
46591;PMS6003;32314;48.748;9.656;2023-02-28T04:41:39;3.00;3.00;3.00
46591;PMS6003;32314;48.748;9.656;2023-02-28T04:44:25;0.00;0.00;0.00
46591;PMS6003;32314;48.748;9.656;2023-02-28T04:47:10;3.25;3.25;3.00
46591;PMS6003;32314;48.748;9.656;2023-02-28T04:49:56;2.00;2.00;2.00
46591;PMS6003;32314;48.748;9.656;2023-02-28T04:52:43;3.00;1.50;1.50
46591;PMS6003;32314;48.748;9.656;2023-02-28T04:55:29;4.00;4.00;3.75
46591;PMS6003;32314;48.748;9.656;2023-02-28T04:58:15;4.50;4.50;3.25
46591;PMS6003;32314;48.748;9.656;2023-02-28T05:01:05;4.00;2.00;2.00
46591;PMS6003;32314;48.748;9.656;2023-02-28T05:03:58;3.75;1.00;1.00
46591;PMS6003;32314;48.748;9.656;2023-02-28T05:06:46;6.25;6.25;4.00
46591;PMS6003;32314;48.748;9.656;2023-02-28T05:09:32;4.00;3.50;3.00
46591;PMS6003;32314;48.748;9.656;2023-02-28T05:12:18;3.50;1.50;1.00
46591;PMS6003;32314;48.748;9.656;2023-02-28T05:15:04;3.75;3.75;3.00
46591;PMS6003;32314;48.748;9.656;2023-02-28T05:17:50;4.00;4.00;3.00
46591;PMS6003;32314;48.748;9.656;2023-02-28T05:20:36;4.50;4.50;3.00
46591;PMS6003;32314;48.748;9.656;2023-02-28T05:23:23;4.00;2.50;1.00
46591;PMS6003;32314;48.748;9.656;2023-02-28T05:26:09;3.50;3.50;2.50
46591;PMS6003;32314;48.748;9.656;2023-02-28T05:28:55;14.75;14.75;10.75
46591;PMS6003;32314;48.748;9.656;2023-02-28T05:31:41;21.50;18.75;11.50
46591;PMS6003;32314;48.748;9.656;2023-02-28T05:34:26;17.00;14.25;9.50
46591;PMS6003;32314;48.748;9.656;2023-02-28T05:37:12;19.00;18.25;14.25
46591;PMS6003;32314;48.748;9.656;2023-02-28T05:39:59;19.25;18.50;12.25
46591;PMS6003;32314;48.748;9.656;2023-02-28T05:42:45;10.00;10.00;6.00
46591;PMS6003;32314;48.748;9.656;2023-02-28T05:45:31;2.00;2.00;2.00
46591;PMS6003;32314;48.748;9.656;2023-02-28T05:48:17;4.00;4.00;3.75
46591;PMS6003;32314;48.748;9.656;2023-02-28T05:51:03;4.00;4.00;2.50
46591;PMS6003;32314;48.748;9.656;2023-02-28T05:53:50;20.50;17.25;10.50
46591;PMS6003;32314;48.748;9.656;2023-02-28T05:56:35;20.50;19.75;14.00
46591;PMS6003;32314;48.748;9.656;2023-02-28T05:59:24;15.25;12.25;9.25
46591;PMS6003;32314;48.748;9.656;2023-02-28T06:02:14;4.00;4.00;3.00
46591;PMS6003;32314;48.748;9.656;2023-02-28T06:05:01;5.00;5.00;4.00
46591;PMS6003;32314;48.748;9.656;2023-02-28T06:07:47;4.50;3.00;3.00
46591;PMS6003;32314;48.748;9.656;2023-02-28T06:10:33;4.50;4.50;3.75
46591;PMS6003;32314;48.748;9.656;2023-02-28T06:13:20;5.50;4.50;3.75
46591;PMS6003;32314;48.748;9.656;2023-02-28T06:16:06;12.00;5.00;5.00
46591;PMS6003;32314;48.748;9.656;2023-02-28T06:18:53;4.00;4.00;3.00
46591;PMS6003;32314;48.748;9.656;2023-02-28T06:21:41;4.00;4.00;3.00
46591;PMS6003;32314;48.748;9.656;2023-02-28T06:24:27;4.00;4.00;3.75
46591;PMS6003;32314;48.748;9.656;2023-02-28T06:27:13;8.00;6.00;5.00
46591;PMS6003;32314;48.748;9.656;2023-02-28T06:29:59;6.25;6.00;4.00
46591;PMS6003;32314;48.748;9.656;2023-02-28T06:32:45;8.75;6.75;6.00
46591;PMS6003;32314;48.748;9.656;2023-02-28T06:35:31;4.00;4.00;3.25
46591;PMS6003;32314;48.748;9.656;2023-02-28T06:38:16;7.00;7.00;6.00
46591;PMS6003;32314;48.748;9.656;2023-02-28T06:41:03;4.00;1.00;0.25
46591;PMS6003;32314;48.748;9.656;2023-02-28T06:43:49;7.00;7.00;5.50
46591;PMS6003;32314;48.748;9.656;2023-02-28T06:46:35;6.25;6.25;4.50
46591;PMS6003;32314;48.748;9.656;2023-02-28T06:49:21;6.75;6.75;6.00
46591;PMS6003;32314;48.748;9.656;2023-02-28T06:52:07;4.50;3.00;3.00
46591;PMS6003;32314;48.748;9.656;2023-02-28T06:54:54;4.00;4.00;4.00
46591;PMS6003;32314;48.748;9.656;2023-02-28T06:57:45;6.75;4.50;3.00
46591;PMS6003;32314;48.748;9.656;2023-02-28T07:00:31;6.00;5.00;3.50
46591;PMS6003;32314;48.748;9.656;2023-02-28T07:03:16;6.25;6.25;6.00
46591;PMS6003;32314;48.748;9.656;2023-02-28T07:06:04;6.25;6.25;4.50
46591;PMS6003;32314;48.748;9.656;2023-02-28T07:08:51;16.00;9.75;7.00
46591;PMS6003;32314;48.748;9.656;2023-02-28T07:11:38;7.00;6.00;4.00
46591;PMS6003;32314;48.748;9.656;2023-02-28T07:14:24;6.50;4.25;3.50
46591;PMS6003;32314;48.748;9.656;2023-02-28T07:17:10;6.50;3.75;3.00
46591;PMS6003;32314;48.748;9.656;2023-02-28T07:19:57;6.00;6.00;4.00
46591;PMS6003;32314;48.748;9.656;2023-02-28T07:22:43;7.25;7.25;5.50
46591;PMS6003;32314;48.748;9.656;2023-02-28T07:25:29;2.50;2.00;1.00
46591;PMS6003;32314;48.748;9.656;2023-02-28T07:28:14;4.50;3.75;1.00
46591;PMS6003;32314;48.748;9.656;2023-02-28T07:31:07;4.00;1.50;1.00
46591;PMS6003;32314;48.748;9.656;2023-02-28T07:33:53;7.75;5.50;3.00
46591;PMS6003;32314;48.748;9.656;2023-02-28T07:36:39;5.50;3.50;3.00
46591;PMS6003;32314;48.748;9.656;2023-02-28T07:39:25;3.50;3.50;2.50
46591;PMS6003;32314;48.748;9.656;2023-02-28T07:42:11;5.50;5.50;3.00
46591;PMS6003;32314;48.748;9.656;2023-02-28T07:44:58;6.00;5.00;4.00
46591;PMS6003;32314;48.748;9.656;2023-02-28T07:47:44;2.00;2.00;0.50
46591;PMS6003;32314;48.748;9.656;2023-02-28T07:50:30;3.75;3.75;2.00
46591;PMS6003;32314;48.748;9.656;2023-02-28T07:53:16;3.00;3.00;3.00
46591;PMS6003;32314;48.748;9.656;2023-02-28T07:56:02;5.50;5.00;3.75
46591;PMS6003;32314;48.748;9.656;2023-02-28T07:58:48;10.75;6.50;5.00
46591;PMS6003;32314;48.748;9.656;2023-02-28T08:01:34;6.75;3.75;3.00
46591;PMS6003;32314;48.748;9.656;2023-02-28T08:04:20;7.50;6.25;4.00
46591;PMS6003;32314;48.748;9.656;2023-02-28T08:07:06;3.00;1.00;1.00
46591;PMS6003;32314;48.748;9.656;2023-02-28T08:09:51;14.00;7.50;7.50
46591;PMS6003;32314;48.748;9.656;2023-02-28T08:12:37;6.00;3.00;1.00
46591;PMS6003;32314;48.748;9.656;2023-02-28T08:15:23;4.75;4.75;3.00
46591;PMS6003;32314;48.748;9.656;2023-02-28T08:18:09;6.75;6.75;6.00
46591;PMS6003;32314;48.748;9.656;2023-02-28T08:20:55;6.50;6.50;4.00
46591;PMS6003;32314;48.748;9.656;2023-02-28T08:23:41;9.50;6.00;5.50
46591;PMS6003;32314;48.748;9.656;2023-02-28T08:26:27;3.00;3.00;1.00
46591;PMS6003;32314;48.748;9.656;2023-02-28T08:29:13;6.00;3.25;0.00
46591;PMS6003;32314;48.748;9.656;2023-02-28T08:31:59;7.00;5.00;4.00
46591;PMS6003;32314;48.748;9.656;2023-02-28T08:34:45;5.50;5.50;3.00
46591;PMS6003;32314;48.748;9.656;2023-02-28T08:37:31;6.75;5.50;4.00
46591;PMS6003;32314;48.748;9.656;2023-02-28T08:40:16;8.50;6.25;4.00
46591;PMS6003;32314;48.748;9.656;2023-02-28T08:43:04;5.50;5.50;4.00
46591;PMS6003;32314;48.748;9.656;2023-02-28T08:45:53;6.25;6.00;5.00
46591;PMS6003;32314;48.748;9.656;2023-02-28T08:48:41;5.50;4.50;4.50
46591;PMS6003;32314;48.748;9.656;2023-02-28T08:51:27;8.75;8.00;6.00
46591;PMS6003;32314;48.748;9.656;2023-02-28T08:54:14;5.50;4.00;4.00
46591;PMS6003;32314;48.748;9.656;2023-02-28T08:57:04;9.50;6.25;4.00
46591;PMS6003;32314;48.748;9.656;2023-02-28T08:59:50;3.75;3.75;3.00
46591;PMS6003;32314;48.748;9.656;2023-02-28T09:02:36;6.50;6.50;3.75
46591;PMS6003;32314;48.748;9.656;2023-02-28T09:05:23;7.00;5.50;4.00
46591;PMS6003;32314;48.748;9.656;2023-02-28T09:08:09;9.00;6.25;4.00
46591;PMS6003;32314;48.748;9.656;2023-02-28T09:10:55;2.75;2.00;2.00
46591;PMS6003;32314;48.748;9.656;2023-02-28T09:13:43;16.00;11.00;6.75
46591;PMS6003;32314;48.748;9.656;2023-02-28T09:16:29;3.00;3.00;1.00
46591;PMS6003;32314;48.748;9.656;2023-02-28T09:19:16;8.50;8.50;6.75
46591;PMS6003;32314;48.748;9.656;2023-02-28T09:22:02;4.00;4.00;3.00
46591;PMS6003;32314;48.748;9.656;2023-02-28T09:24:47;6.00;4.50;3.50
46591;PMS6003;32314;48.748;9.656;2023-02-28T09:27:33;12.75;8.00;6.50
46591;PMS6003;32314;48.748;9.656;2023-02-28T09:30:19;9.50;7.50;4.50
46591;PMS6003;32314;48.748;9.656;2023-02-28T09:33:05;6.25;6.25;3.75
46591;PMS6003;32314;48.748;9.656;2023-02-28T09:35:51;9.25;4.75;2.00
46591;PMS6003;32314;48.748;9.656;2023-02-28T09:38:43;6.00;6.00;4.00
46591;PMS6003;32314;48.748;9.656;2023-02-28T09:41:32;9.00;6.50;4.00
46591;PMS6003;32314;48.748;9.656;2023-02-28T09:44:32;9.75;5.50;4.00
46591;PMS6003;32314;48.748;9.656;2023-02-28T09:53:21;12.25;5.00;3.00
46591;PMS6003;32314;48.748;9.656;2023-02-28T09:56:18;9.50;6.25;4.00
46591;PMS6003;32314;48.748;9.656;2023-02-28T09:59:22;9.75;8.75;6.00
46591;PMS6003;32314;48.748;9.656;2023-02-28T10:05:35;7.50;6.25;4.50
46591;PMS6003;32314;48.748;9.656;2023-02-28T10:08:28;6.25;6.25;4.00
46591;PMS6003;32314;48.748;9.656;2023-02-28T10:11:18;6.00;6.00;4.00
46591;PMS6003;32314;48.748;9.656;2023-02-28T10:14:16;8.50;8.50;6.00
46591;PMS6003;32314;48.748;9.656;2023-02-28T10:17:05;9.00;9.00;6.75
46591;PMS6003;32314;48.748;9.656;2023-02-28T10:19:58;10.25;7.25;3.75
46591;PMS6003;32314;48.748;9.656;2023-02-28T10:23:01;8.00;8.00;5.50
46591;PMS6003;32314;48.748;9.656;2023-02-28T10:26:12;6.25;6.25;4.50
46591;PMS6003;32314;48.748;9.656;2023-02-28T10:28:58;7.00;7.00;5.50
46591;PMS6003;32314;48.748;9.656;2023-02-28T10:31:44;10.00;6.50;4.50
46591;PMS6003;32314;48.748;9.656;2023-02-28T10:34:30;8.50;6.00;4.00
46591;PMS6003;32314;48.748;9.656;2023-02-28T10:37:16;7.00;7.00;6.00
46591;PMS6003;32314;48.748;9.656;2023-02-28T10:40:02;9.25;9.25;7.00
46591;PMS6003;32314;48.748;9.656;2023-02-28T10:43:01;11.00;10.50;7.00
46591;PMS6003;32314;48.748;9.656;2023-02-28T10:45:58;9.50;8.50;6.00
46591;PMS6003;32314;48.748;9.656;2023-02-28T10:49:00;9.00;6.25;4.00
46591;PMS6003;32314;48.748;9.656;2023-02-28T10:51:49;0.50;0.25;0.00
46591;PMS6003;32314;48.748;9.656;2023-02-28T10:54:37;6.00;6.00;4.00
46591;PMS6003;32314;48.748;9.656;2023-02-28T10:57:23;9.25;9.25;7.00
46591;PMS6003;32314;48.748;9.656;2023-02-28T11:00:20;17.50;9.25;6.50
46591;PMS6003;32314;48.748;9.656;2023-02-28T11:03:21;8.50;6.25;6.00
46591;PMS6003;32314;48.748;9.656;2023-02-28T11:06:22;4.50;3.50;3.00
46591;PMS6003;32314;48.748;9.656;2023-02-28T11:09:54;8.00;8.00;6.25
46591;PMS6003;32314;48.748;9.656;2023-02-28T11:12:22;9.25;7.00;6.75
46591;PMS6003;32314;48.748;9.656;2023-02-28T11:15:27;21.25;8.00;5.50
46591;PMS6003;32314;48.748;9.656;2023-02-28T11:18:19;9.50;9.50;6.50
46591;PMS6003;32314;48.748;9.656;2023-02-28T11:21:06;12.25;12.25;6.25
46591;PMS6003;32314;48.748;9.656;2023-02-28T11:23:58;12.50;9.75;5.50
46591;PMS6003;32314;48.748;9.656;2023-02-28T11:26:47;12.25;9.25;6.50
46591;PMS6003;32314;48.748;9.656;2023-02-28T11:29:34;9.75;6.50;4.50
46591;PMS6003;32314;48.748;9.656;2023-02-28T11:32:24;5.00;5.00;4.00
46591;PMS6003;32314;48.748;9.656;2023-02-28T11:35:16;9.50;5.00;3.00
46591;PMS6003;32314;48.748;9.656;2023-02-28T11:38:09;9.50;6.75;4.00
46591;PMS6003;32314;48.748;9.656;2023-02-28T11:55:36;14.25;7.50;5.50
46591;PMS6003;32314;48.748;9.656;2023-02-28T12:04:49;12.33;8.67;6.00
46591;PMS6003;32314;48.748;9.656;2023-02-28T12:07:47;10.00;10.00;6.25
46591;PMS6003;32314;48.748;9.656;2023-02-28T12:23:19;14.50;10.00;6.25
46591;PMS6003;32314;48.748;9.656;2023-02-28T12:29:17;11.75;11.75;6.00
46591;PMS6003;32314;48.748;9.656;2023-02-28T12:32:29;8.50;7.00;6.00
46591;PMS6003;32314;48.748;9.656;2023-02-28T12:35:25;8.50;7.25;4.50
46591;PMS6003;32314;48.748;9.656;2023-02-28T12:38:21;16.00;9.00;4.00
46591;PMS6003;32314;48.748;9.656;2023-02-28T12:41:19;12.67;6.33;5.33
46591;PMS6003;32314;48.748;9.656;2023-02-28T12:44:12;8.33;8.33;6.00
46591;PMS6003;32314;48.748;9.656;2023-02-28T12:47:03;22.75;22.75;18.75
46591;PMS6003;32314;48.748;9.656;2023-02-28T12:50:02;49.75;46.75;38.25
46591;PMS6003;32314;48.748;9.656;2023-02-28T12:56:12;41.75;39.50;34.00
46591;PMS6003;32314;48.748;9.656;2023-02-28T12:59:02;28.25;28.25;28.00
46591;PMS6003;32314;48.748;9.656;2023-02-28T13:17:20;7.67;7.67;4.00
46591;PMS6003;32314;48.748;9.656;2023-02-28T13:20:14;8.33;8.33;6.00
46591;PMS6003;32314;48.748;9.656;2023-02-28T13:23:02;7.67;7.67;6.33
46591;PMS6003;32314;48.748;9.656;2023-02-28T13:25:50;10.00;10.00;7.00
46591;PMS6003;32314;48.748;9.656;2023-02-28T13:28:56;9.33;7.00;4.00
46591;PMS6003;32314;48.748;9.656;2023-02-28T13:37:38;12.00;6.00;5.33
46591;PMS6003;32314;48.748;9.656;2023-02-28T13:40:29;11.67;9.67;7.67
46591;PMS6003;32314;48.748;9.656;2023-02-28T13:43:23;5.33;5.33;4.00
46591;PMS6003;32314;48.748;9.656;2023-02-28T13:49:32;12.00;12.00;6.00
46591;PMS6003;32314;48.748;9.656;2023-02-28T13:52:20;16.67;8.33;6.33
46591;PMS6003;32314;48.748;9.656;2023-02-28T14:01:31;7.00;4.00;3.00
46591;PMS6003;32314;48.748;9.656;2023-02-28T14:07:53;7.00;7.00;6.33
46591;PMS6003;32314;48.748;9.656;2023-02-28T14:10:41;9.67;9.00;5.33
46591;PMS6003;32314;48.748;9.656;2023-02-28T14:16:45;12.33;10.67;7.00
46591;PMS6003;32314;48.748;9.656;2023-02-28T14:19:32;5.33;5.33;3.00
46591;PMS6003;32314;48.748;9.656;2023-02-28T14:25:44;12.00;12.00;6.00
46591;PMS6003;32314;48.748;9.656;2023-02-28T14:28:56;11.33;9.00;6.00
46591;PMS6003;32314;48.748;9.656;2023-02-28T14:32:27;12.33;9.33;6.00
46591;PMS6003;32314;48.748;9.656;2023-02-28T14:38:23;10.67;6.67;6.00
46591;PMS6003;32314;48.748;9.656;2023-02-28T14:41:16;9.00;6.67;4.00
46591;PMS6003;32314;48.748;9.656;2023-02-28T14:44:26;8.33;8.33;6.00
46591;PMS6003;32314;48.748;9.656;2023-02-28T14:47:14;9.33;9.33;6.67
46591;PMS6003;32314;48.748;9.656;2023-02-28T14:50:01;12.33;10.00;7.00
46591;PMS6003;32314;48.748;9.656;2023-02-28T14:52:53;10.67;9.00;7.00
46591;PMS6003;32314;48.748;9.656;2023-02-28T14:55:43;12.67;12.67;9.67
46591;PMS6003;32314;48.748;9.656;2023-02-28T14:58:31;12.67;10.00;7.67
46591;PMS6003;32314;48.748;9.656;2023-02-28T15:01:19;10.00;10.00;7.00
46591;PMS6003;32314;48.748;9.656;2023-02-28T15:04:11;16.00;13.67;11.33
46591;PMS6003;32314;48.748;9.656;2023-02-28T15:07:10;11.33;11.33;9.00
46591;PMS6003;32314;48.748;9.656;2023-02-28T15:10:06;8.67;8.67;7.00
46591;PMS6003;32314;48.748;9.656;2023-02-28T15:12:55;12.67;11.33;9.00
46591;PMS6003;32314;48.748;9.656;2023-02-28T15:21:35;11.67;8.33;6.67
46591;PMS6003;32314;48.748;9.656;2023-02-28T15:24:30;10.67;10.67;7.67
46591;PMS6003;32314;48.748;9.656;2023-02-28T15:27:27;12.67;10.67;9.00
46591;PMS6003;32314;48.748;9.656;2023-02-28T15:30:25;7.33;6.00;4.00
46591;PMS6003;32314;48.748;9.656;2023-02-28T15:36:05;9.33;7.00;5.33
46591;PMS6003;32314;48.748;9.656;2023-02-28T15:38:55;12.00;8.67;7.33
46591;PMS6003;32314;48.748;9.656;2023-02-28T15:41:41;9.33;7.00;5.33
46591;PMS6003;32314;48.748;9.656;2023-02-28T15:44:28;9.67;9.67;6.33
46591;PMS6003;32314;48.748;9.656;2023-02-28T15:47:22;7.00;7.00;6.00
46591;PMS6003;32314;48.748;9.656;2023-02-28T15:50:10;12.33;7.67;4.67
46591;PMS6003;32314;48.748;9.656;2023-02-28T15:52:59;10.00;7.67;7.00
46591;PMS6003;32314;48.748;9.656;2023-02-28T15:55:48;13.67;8.33;6.00
46591;PMS6003;32314;48.748;9.656;2023-02-28T15:58:38;6.67;6.67;5.33
46591;PMS6003;32314;48.748;9.656;2023-02-28T16:01:25;17.67;13.33;8.33
46591;PMS6003;32314;48.748;9.656;2023-02-28T16:04:16;13.67;9.33;6.33
46591;PMS6003;32314;48.748;9.656;2023-02-28T16:07:04;12.00;10.50;7.00
46591;PMS6003;32314;48.748;9.656;2023-02-28T16:09:51;5.25;4.00;3.00
46591;PMS6003;32314;48.748;9.656;2023-02-28T16:12:38;8.25;6.50;3.50
46591;PMS6003;32314;48.748;9.656;2023-02-28T16:15:28;9.75;9.75;6.00
46591;PMS6003;32314;48.748;9.656;2023-02-28T16:18:16;9.50;9.50;6.00
46591;PMS6003;32314;48.748;9.656;2023-02-28T16:21:02;12.75;9.50;6.00
46591;PMS6003;32314;48.748;9.656;2023-02-28T16:23:48;10.50;9.50;6.50
46591;PMS6003;32314;48.748;9.656;2023-02-28T16:26:34;6.00;6.00;4.00
46591;PMS6003;32314;48.748;9.656;2023-02-28T16:29:31;13.50;11.50;9.00
46591;PMS6003;32314;48.748;9.656;2023-02-28T16:32:18;19.25;9.00;6.25
46591;PMS6003;32314;48.748;9.656;2023-02-28T16:35:05;10.25;10.25;7.50
46591;PMS6003;32314;48.748;9.656;2023-02-28T16:37:51;12.25;12.00;6.50
46591;PMS6003;32314;48.748;9.656;2023-02-28T16:40:37;16.00;9.00;7.00
46591;PMS6003;32314;48.748;9.656;2023-02-28T16:43:24;13.75;10.00;7.00
46591;PMS6003;32314;48.748;9.656;2023-02-28T16:46:11;12.00;12.00;9.50
46591;PMS6003;32314;48.748;9.656;2023-02-28T16:48:57;15.00;11.75;8.00
46591;PMS6003;32314;48.748;9.656;2023-02-28T16:51:43;14.25;12.75;9.25
46591;PMS6003;32314;48.748;9.656;2023-02-28T16:54:29;6.50;6.25;3.50
46591;PMS6003;32314;48.748;9.656;2023-02-28T16:57:20;21.50;16.00;9.00
46591;PMS6003;32314;48.748;9.656;2023-02-28T17:00:07;8.00;8.00;6.00
46591;PMS6003;32314;48.748;9.656;2023-02-28T17:02:56;13.50;9.25;6.50
46591;PMS6003;32314;48.748;9.656;2023-02-28T17:05:42;16.50;13.00;9.00
46591;PMS6003;32314;48.748;9.656;2023-02-28T17:08:28;3.00;3.00;1.00
46591;PMS6003;32314;48.748;9.656;2023-02-28T17:11:15;15.50;12.50;7.00
46591;PMS6003;32314;48.748;9.656;2023-02-28T17:14:01;10.00;9.25;6.25
46591;PMS6003;32314;48.748;9.656;2023-02-28T17:16:47;17.00;14.50;11.50
46591;PMS6003;32314;48.748;9.656;2023-02-28T17:19:33;16.00;8.75;7.50
46591;PMS6003;32314;48.748;9.656;2023-02-28T17:22:21;10.00;10.00;8.50
46591;PMS6003;32314;48.748;9.656;2023-02-28T17:25:07;14.00;9.75;6.00
46591;PMS6003;32314;48.748;9.656;2023-02-28T17:27:54;16.75;14.00;10.00
46591;PMS6003;32314;48.748;9.656;2023-02-28T17:30:41;14.25;14.25;11.00
46591;PMS6003;32314;48.748;9.656;2023-02-28T17:33:32;14.25;12.75;9.50
46591;PMS6003;32314;48.748;9.656;2023-02-28T17:36:21;15.25;15.25;9.00
46591;PMS6003;32314;48.748;9.656;2023-02-28T17:39:09;6.50;6.50;5.00
46591;PMS6003;32314;48.748;9.656;2023-02-28T17:41:59;8.00;8.00;5.75
46591;PMS6003;32314;48.748;9.656;2023-02-28T17:44:44;8.50;8.50;6.75
46591;PMS6003;32314;48.748;9.656;2023-02-28T17:47:30;12.00;8.75;6.50
46591;PMS6003;32314;48.748;9.656;2023-02-28T17:50:17;3.00;1.00;1.00
46591;PMS6003;32314;48.748;9.656;2023-02-28T17:53:06;11.50;11.50;9.00
46591;PMS6003;32314;48.748;9.656;2023-02-28T17:55:51;15.75;12.50;8.00
46591;PMS6003;32314;48.748;9.656;2023-02-28T17:58:37;12.25;12.25;8.00
46591;PMS6003;32314;48.748;9.656;2023-02-28T18:01:23;8.00;6.00;3.75
46591;PMS6003;32314;48.748;9.656;2023-02-28T18:04:12;18.75;14.50;9.75
46591;PMS6003;32314;48.748;9.656;2023-02-28T18:06:57;12.25;10.00;7.00
46591;PMS6003;32314;48.748;9.656;2023-02-28T18:09:45;11.25;9.50;4.00
46591;PMS6003;32314;48.748;9.656;2023-02-28T18:12:31;9.25;4.00;1.00
46591;PMS6003;32314;48.748;9.656;2023-02-28T18:15:17;6.75;6.75;1.00
46591;PMS6003;32314;48.748;9.656;2023-02-28T18:18:05;17.50;12.50;9.75
46591;PMS6003;32314;48.748;9.656;2023-02-28T18:20:52;11.75;11.75;6.25
46591;PMS6003;32314;48.748;9.656;2023-02-28T18:23:39;11.50;7.75;6.00
46591;PMS6003;32314;48.748;9.656;2023-02-28T18:26:32;11.50;11.50;9.00
46591;PMS6003;32314;48.748;9.656;2023-02-28T18:29:20;5.00;2.00;1.00
46591;PMS6003;32314;48.748;9.656;2023-02-28T18:32:10;17.25;9.00;6.75
46591;PMS6003;32314;48.748;9.656;2023-02-28T18:34:56;11.50;11.50;7.00
46591;PMS6003;32314;48.748;9.656;2023-02-28T18:37:41;15.50;12.00;8.00
46591;PMS6003;32314;48.748;9.656;2023-02-28T18:40:27;9.75;9.25;7.00
46591;PMS6003;32314;48.748;9.656;2023-02-28T18:43:13;10.25;9.75;6.25